Terminal Aerodrome Forecast
Issued by NWS Tulsa, OK

Home | Current Version | Previous Version | Text Only | Print | Product List | Glossary On
Versions: 1 2 3 4 5 6 7 8 9 10 11 12 13 14 15
883
FTUS44 KTSA 200350 AAA
TAFTUL
TAF AMD
KTUL 200350Z 2004/2024 16006KT P6SM BKN016
     FM200600 15004KT 4SM BR OVC015
     FM200900 15004KT 1/2SM FG OVC001
     FM201500 17008KT 4SM BR OVC001
     FM201800 19013G20KT P6SM FEW250=

USA.gov is the U.S. government's official web portal to all federal, state and local government web resources and services.